createdAt,value
2023-05-04T00:02:10.755Z,87.00
2023-05-04T00:04:38.233Z,87.10
2023-05-04T00:07:05.493Z,87.40
2023-05-04T00:09:32.839Z,88.40
2023-05-04T00:12:00.007Z,88.60
2023-05-04T00:14:27.493Z,88.80
2023-05-04T00:16:54.775Z,88.80
2023-05-04T00:19:22.038Z,88.80
2023-05-04T00:21:49.421Z,88.80
2023-05-04T00:24:16.689Z,89.10
2023-05-04T00:26:45.700Z,89.00
2023-05-04T00:29:13.062Z,88.30
2023-05-04T00:31:40.565Z,88.00
2023-05-04T00:34:08.109Z,87.70
2023-05-04T00:36:35.690Z,87.50
2023-05-04T00:39:03.054Z,88.10
2023-05-04T00:41:30.370Z,88.30
2023-05-04T00:43:59.874Z,88.80
2023-05-04T00:46:27.266Z,88.90
2023-05-04T00:48:54.841Z,89.10
2023-05-04T00:51:25.032Z,89.00
2023-05-04T00:53:55.951Z,88.70
2023-05-04T00:56:24.448Z,88.30
2023-05-04T00:58:54.611Z,88.10
2023-05-04T01:01:22.715Z,88.00
2023-05-04T01:03:51.547Z,88.50
2023-05-04T01:06:37.771Z,88.60
2023-05-04T01:09:58.691Z,89.00
2023-05-04T01:12:27.985Z,90.10
2023-05-04T01:14:56.530Z,90.00
2023-05-04T01:17:23.978Z,90.70
2023-05-04T01:19:54.129Z,90.80
2023-05-04T01:22:22.238Z,91.20
2023-05-04T01:24:50.793Z,91.60
2023-05-04T01:27:31.371Z,92.00
2023-05-04T01:30:19.029Z,92.60
2023-05-04T01:32:47.885Z,92.70
2023-05-04T01:35:16.378Z,92.10
2023-05-04T01:37:43.951Z,92.10
2023-05-04T01:40:12.327Z,92.00
2023-05-04T01:42:39.734Z,91.90
2023-05-04T01:45:08.251Z,91.90
2023-05-04T01:47:35.584Z,91.30
2023-05-04T01:50:03.022Z,91.20
2023-05-04T01:52:30.683Z,91.30
2023-05-04T01:54:58.008Z,91.40
2023-05-04T01:57:26.058Z,90.90
2023-05-04T01:59:53.522Z,90.90
2023-05-04T02:02:20.816Z,90.60
2023-05-04T02:04:48.056Z,90.70
2023-05-04T02:07:15.493Z,90.90
2023-05-04T02:09:43.465Z,91.20
2023-05-04T02:12:10.801Z,91.20
2023-05-04T02:14:38.045Z,91.30
2023-05-04T02:17:05.257Z,92.10
2023-05-04T02:19:32.587Z,92.20
2023-05-04T02:21:59.897Z,92.40
2023-05-04T02:24:27.805Z,92.80
2023-05-04T02:26:55.083Z,92.80
2023-05-04T02:29:22.478Z,92.70
2023-05-04T02:31:49.930Z,92.40
2023-05-04T02:34:17.214Z,91.90
2023-05-04T02:36:47.630Z,91.50
2023-05-04T02:39:15.189Z,91.00
2023-05-04T02:41:42.588Z,90.70
2023-05-04T02:44:09.953Z,89.90
2023-05-04T02:46:37.361Z,89.20
2023-05-04T02:49:04.699Z,88.80
2023-05-04T02:51:32.067Z,88.80
2023-05-04T02:53:59.384Z,89.10
2023-05-04T02:56:26.725Z,89.30
2023-05-04T02:58:54.088Z,89.40
2023-05-04T03:01:21.504Z,89.20
2023-05-04T03:03:49.057Z,89.00
2023-05-04T03:06:16.400Z,89.40
2023-05-04T03:08:43.968Z,89.60
2023-05-04T03:11:11.329Z,89.30
2023-05-04T03:13:38.673Z,88.90
2023-05-04T03:16:06.145Z,88.70
2023-05-04T03:18:33.859Z,88.80
2023-05-04T03:21:02.506Z,88.80
2023-05-04T03:23:30.276Z,88.90
2023-05-04T03:25:58.192Z,88.90
2023-05-04T03:28:26.075Z,89.10
2023-05-04T03:30:54.089Z,89.00
2023-05-04T03:33:22.297Z,89.00
2023-05-04T03:35:49.578Z,89.00
2023-05-04T03:38:17.137Z,88.50
2023-05-04T03:40:46.235Z,88.20
2023-05-04T03:43:14.530Z,87.90
2023-05-04T03:45:41.860Z,87.80
2023-05-04T03:48:09.444Z,87.30
2023-05-04T03:50:37.383Z,87.40
2023-05-04T03:53:05.740Z,87.50
2023-05-04T03:55:33.295Z,87.60
2023-05-04T03:58:00.945Z,88.00
2023-05-04T04:00:29.113Z,88.10
2023-05-04T04:03:06.641Z,88.50
2023-05-04T04:05:34.296Z,88.70
2023-05-04T04:08:01.667Z,88.90
2023-05-04T04:10:28.932Z,89.30
2023-05-04T04:12:56.483Z,89.00
2023-05-04T04:15:23.883Z,89.10
2023-05-04T04:17:51.197Z,88.50
2023-05-04T04:20:18.692Z,88.40
2023-05-04T04:22:46.326Z,88.30
2023-05-04T04:25:13.924Z,87.80
2023-05-04T04:27:41.645Z,87.40
2023-05-04T04:30:09.668Z,87.30
2023-05-04T04:32:37.736Z,86.90
2023-05-04T04:35:05.632Z,86.80
2023-05-04T04:37:33.053Z,86.00
2023-05-04T04:40:01.679Z,85.40
2023-05-04T04:42:29.105Z,84.60
2023-05-04T04:44:56.363Z,84.00
2023-05-04T04:47:23.838Z,83.70
2023-05-04T04:49:51.562Z,83.00
2023-05-04T04:52:18.990Z,83.20
2023-05-04T04:54:46.837Z,82.90
2023-05-04T04:57:14.144Z,82.10
2023-05-04T04:59:41.337Z,82.00
2023-05-04T05:02:09.804Z,81.70
2023-05-04T05:04:40.638Z,80.70
2023-05-04T05:07:10.900Z,80.20
2023-05-04T05:09:38.791Z,80.00
2023-05-04T05:12:06.622Z,80.00
2023-05-04T05:14:34.035Z,80.50
2023-05-04T05:17:04.183Z,80.50
2023-05-04T05:19:37.261Z,80.90
2023-05-04T05:22:05.383Z,81.10
2023-05-04T05:24:32.683Z,80.70
2023-05-04T05:27:00.723Z,80.40
2023-05-04T05:29:28.035Z,79.80
2023-05-04T05:31:55.349Z,79.30
2023-05-04T05:34:22.668Z,78.90
2023-05-04T05:36:49.927Z,78.40
2023-05-04T05:39:17.882Z,78.70
2023-05-04T05:41:45.322Z,78.90
2023-05-04T05:44:13.182Z,79.10
2023-05-04T05:46:40.847Z,79.00
2023-05-04T05:49:08.186Z,79.10
2023-05-04T05:51:35.558Z,78.90
2023-05-04T05:54:02.836Z,78.80
2023-05-04T05:56:30.170Z,79.40
2023-05-04T05:58:57.427Z,79.60
2023-05-04T06:01:24.738Z,79.90
2023-05-04T06:03:52.503Z,80.10
2023-05-04T06:06:20.073Z,80.80
2023-05-04T06:08:47.373Z,81.00
2023-05-04T06:11:15.148Z,81.10
2023-05-04T06:13:42.580Z,81.30
2023-05-04T06:16:09.944Z,81.80
2023-05-04T06:18:37.288Z,81.30
2023-05-04T06:21:05.059Z,81.20
2023-05-04T06:23:32.798Z,81.60
2023-05-04T06:26:00.243Z,80.80
2023-05-04T06:28:28.225Z,79.80
2023-05-04T06:30:55.514Z,78.00
2023-05-04T06:33:25.986Z,78.70
2023-05-04T06:35:53.729Z,77.50
2023-05-04T06:38:21.841Z,77.30
2023-05-04T06:40:50.187Z,77.30
2023-05-04T06:43:17.570Z,77.40
2023-05-04T06:45:45.041Z,77.60
2023-05-04T06:48:12.639Z,77.20
2023-05-04T06:50:40.111Z,76.10
2023-05-04T06:53:09.255Z,76.60
2023-05-04T06:55:37.523Z,75.70
2023-05-04T06:58:05.388Z,74.70
2023-05-04T07:00:32.841Z,74.90
2023-05-04T07:03:00.239Z,74.30
2023-05-04T07:05:27.610Z,72.40
2023-05-04T07:07:54.948Z,72.30
2023-05-04T07:10:22.338Z,72.80
2023-05-04T07:12:49.733Z,72.90
2023-05-04T07:15:17.543Z,72.60
2023-05-04T07:17:44.910Z,72.70
2023-05-04T07:20:12.995Z,72.80
2023-05-04T07:22:40.264Z,72.80
2023-05-04T07:25:07.963Z,71.90
2023-05-04T07:27:35.573Z,72.10
2023-05-04T07:30:04.246Z,71.60
2023-05-04T07:32:31.786Z,70.30
2023-05-04T07:34:59.079Z,69.60
2023-05-04T07:37:26.624Z,68.40
2023-05-04T07:39:54.184Z,68.20
2023-05-04T07:42:21.495Z,67.30
2023-05-04T07:44:48.803Z,68.30
2023-05-04T07:47:16.096Z,68.30
2023-05-04T07:49:43.426Z,67.00
2023-05-04T07:52:10.803Z,65.80
2023-05-04T07:54:38.559Z,67.40
2023-05-04T07:57:05.836Z,69.40
2023-05-04T07:59:33.652Z,70.70
2023-05-04T08:02:01.348Z,71.50
2023-05-04T08:04:28.653Z,71.10
2023-05-04T08:06:55.940Z,70.80
2023-05-04T08:09:23.437Z,71.10
2023-05-04T08:11:50.815Z,73.20
2023-05-04T08:14:18.310Z,72.50
2023-05-04T08:16:45.666Z,71.70
2023-05-04T08:19:12.912Z,72.20
2023-05-04T08:21:43.139Z,72.90
2023-05-04T08:24:11.076Z,72.30
2023-05-04T08:26:39.227Z,71.80
2023-05-04T08:29:10.980Z,74.70
2023-05-04T08:31:38.636Z,75.20
2023-05-04T08:34:06.554Z,74.00
2023-05-04T08:36:34.116Z,72.80
2023-05-04T08:39:01.577Z,73.40
2023-05-04T08:41:29.553Z,72.90
2023-05-04T08:43:57.107Z,70.90
2023-05-04T08:46:24.903Z,71.40
2023-05-04T08:48:52.610Z,71.10
2023-05-04T08:51:27.059Z,68.90
2023-05-04T08:53:54.858Z,67.40
2023-05-04T08:56:23.467Z,66.40
2023-05-04T08:58:52.035Z,64.70
2023-05-04T09:01:20.310Z,63.90
2023-05-04T09:03:48.613Z,63.50
2023-05-04T09:06:16.229Z,62.70
2023-05-04T09:08:43.694Z,62.70
2023-05-04T09:11:11.091Z,62.40
2023-05-04T09:13:38.881Z,61.40
2023-05-04T09:16:07.833Z,61.10
2023-05-04T09:18:41.535Z,61.80
2023-05-04T09:21:09.088Z,62.20
2023-05-04T09:23:47.572Z,61.40
2023-05-04T09:26:15.651Z,62.60
2023-05-04T09:28:43.627Z,61.50
2023-05-04T09:31:12.088Z,61.40
2023-05-04T09:33:39.608Z,60.60
2023-05-04T09:36:18.927Z,60.50
2023-05-04T09:38:46.824Z,60.90
2023-05-04T09:41:14.423Z,60.80
2023-05-04T09:43:44.010Z,61.40
2023-05-04T09:46:18.758Z,61.00
2023-05-04T09:48:57.343Z,62.00
2023-05-04T09:51:27.569Z,62.30
2023-05-04T09:53:55.305Z,61.90
2023-05-04T09:56:46.387Z,62.90
2023-05-04T09:59:14.845Z,62.30
2023-05-04T10:01:44.788Z,63.10
2023-05-04T10:04:13.269Z,60.50
2023-05-04T10:06:43.346Z,60.80
2023-05-04T10:09:11.914Z,62.50
2023-05-04T10:11:39.988Z,61.80
2023-05-04T10:14:08.669Z,61.00
2023-05-04T10:16:57.333Z,61.00
2023-05-04T10:19:47.723Z,61.70
2023-05-04T10:22:24.340Z,61.50
2023-05-04T10:25:45.912Z,61.80
2023-05-04T10:28:42.435Z,61.40
2023-05-04T10:31:09.916Z,61.00
2023-05-04T10:33:43.788Z,62.00
2023-05-04T10:36:11.794Z,63.30
2023-05-04T10:38:40.590Z,63.30
2023-05-04T10:41:18.591Z,62.40
2023-05-04T10:43:53.285Z,63.40
2023-05-04T10:46:22.772Z,64.00
2023-05-04T10:48:51.759Z,63.00
2023-05-04T10:51:20.648Z,62.90
2023-05-04T10:53:48.223Z,63.20
2023-05-04T10:56:26.339Z,63.10
2023-05-04T10:58:54.914Z,63.20
2023-05-04T11:01:22.861Z,63.80
2023-05-04T11:03:52.027Z,65.30
2023-05-04T11:06:24.093Z,65.50
2023-05-04T11:09:02.697Z,65.70
2023-05-04T11:11:30.208Z,66.00
2023-05-04T11:13:57.944Z,66.60
2023-05-04T11:16:26.833Z,66.60
2023-05-04T11:18:55.155Z,66.60
2023-05-04T11:21:26.288Z,65.40
2023-05-04T11:24:00.674Z,67.50
2023-05-04T11:26:29.513Z,67.60
2023-05-04T11:28:56.990Z,68.10
2023-05-04T11:31:24.334Z,71.10
2023-05-04T11:33:54.721Z,69.90
2023-05-04T11:36:23.205Z,68.60
2023-05-04T11:38:51.143Z,68.80
2023-05-04T11:41:18.503Z,69.20
2023-05-04T11:43:47.099Z,69.90
2023-05-04T11:46:16.685Z,69.80
2023-05-04T11:48:44.533Z,69.70
2023-05-04T11:51:11.877Z,68.70
2023-05-04T11:53:40.840Z,69.20
2023-05-04T11:56:09.296Z,70.10
2023-05-04T11:58:37.162Z,69.00
2023-05-04T12:01:05.125Z,67.50
2023-05-04T12:06:05.152Z,68.50
2023-05-04T12:08:35.085Z,68.30
2023-05-04T12:11:29.181Z,68.30
2023-05-04T12:14:28.441Z,67.50
2023-05-04T12:16:57.951Z,66.10
2023-05-04T12:19:25.388Z,66.10
2023-05-04T12:21:58.594Z,64.80
2023-05-04T12:24:27.949Z,64.00
2023-05-04T12:26:55.537Z,64.30
2023-05-04T12:29:22.906Z,63.90
2023-05-04T12:31:50.353Z,63.90
2023-05-04T12:34:17.906Z,64.10
2023-05-04T12:36:45.355Z,64.10
2023-05-04T12:39:12.599Z,62.90
2023-05-04T12:41:40.388Z,61.80
2023-05-04T12:44:08.951Z,61.80
2023-05-04T12:46:37.631Z,61.90
2023-05-04T12:49:04.989Z,61.10
2023-05-04T12:51:32.550Z,60.60
2023-05-04T12:53:59.992Z,61.00
2023-05-04T12:56:27.287Z,60.00
2023-05-04T12:58:54.974Z,59.60
2023-05-04T13:01:22.367Z,59.50
2023-05-04T13:03:51.843Z,59.80
2023-05-04T13:06:19.945Z,58.80
2023-05-04T13:08:47.520Z,58.10
2023-05-04T13:11:19.392Z,58.00
2023-05-04T13:13:46.609Z,57.20
2023-05-04T13:16:14.058Z,57.10
2023-05-04T13:18:41.514Z,56.90
2023-05-04T13:21:08.879Z,56.60
2023-05-04T13:23:36.563Z,55.50
2023-05-04T13:26:04.150Z,55.20
2023-05-04T13:28:31.611Z,54.50
2023-05-04T13:30:59.066Z,55.80
2023-05-04T13:33:29.929Z,55.20
2023-05-04T13:35:58.639Z,52.70
2023-05-04T13:38:26.428Z,51.10
2023-05-04T13:40:54.709Z,49.90
2023-05-04T13:43:22.388Z,49.70
2023-05-04T13:45:50.075Z,47.70
2023-05-04T13:48:18.224Z,47.50
2023-05-04T13:50:45.517Z,47.40
2023-05-04T13:53:12.992Z,45.10
2023-05-04T13:55:40.266Z,44.40
2023-05-04T13:58:07.630Z,43.50
2023-05-04T14:00:35.187Z,43.50
2023-05-04T14:03:02.735Z,44.70
2023-05-04T14:05:30.549Z,45.30
2023-05-04T14:07:57.957Z,46.10
2023-05-04T14:10:25.376Z,44.70
2023-05-04T14:12:52.698Z,46.50
2023-05-04T14:15:22.888Z,48.30
2023-05-04T14:17:50.725Z,48.10
2023-05-04T14:20:18.611Z,49.50
2023-05-04T14:22:45.938Z,51.10
2023-05-04T14:25:13.650Z,52.00
2023-05-04T14:27:42.976Z,52.80
2023-05-04T14:30:11.041Z,52.80
2023-05-04T14:32:38.376Z,54.10
2023-05-04T14:35:08.993Z,55.20
2023-05-04T14:37:38.306Z,56.20
2023-05-04T14:40:07.652Z,55.60
2023-05-04T14:42:36.048Z,55.20
2023-05-04T14:45:03.619Z,58.30
2023-05-04T14:47:31.013Z,58.90
2023-05-04T14:49:58.317Z,60.20
2023-05-04T14:52:26.755Z,61.00
2023-05-04T14:54:54.001Z,62.00
2023-05-04T14:57:22.734Z,62.90
2023-05-04T14:59:50.122Z,62.50
2023-05-04T15:02:21.068Z,62.50
2023-05-04T15:04:48.479Z,61.30
2023-05-04T15:07:21.107Z,61.50
2023-05-04T15:09:48.443Z,62.50
2023-05-04T15:12:16.757Z,62.50
2023-05-04T15:14:44.769Z,63.10
2023-05-04T15:17:12.047Z,62.70
2023-05-04T15:19:40.018Z,60.90
2023-05-04T15:22:07.925Z,61.00
2023-05-04T15:24:35.321Z,61.60
2023-05-04T15:27:03.804Z,62.30
2023-05-04T15:29:31.461Z,63.40
2023-05-04T15:31:58.715Z,64.60
2023-05-04T15:34:26.085Z,65.50
2023-05-04T15:36:53.699Z,66.30
2023-05-04T15:39:21.185Z,67.10
2023-05-04T15:41:48.482Z,68.00
2023-05-04T15:44:15.999Z,68.30
2023-05-04T15:46:43.364Z,69.10
2023-05-04T15:49:10.803Z,69.30
2023-05-04T15:51:38.288Z,69.50
2023-05-04T15:54:05.883Z,69.60
2023-05-04T15:56:34.144Z,70.30
2023-05-04T15:59:01.472Z,69.70
2023-05-04T16:01:28.953Z,70.30
2023-05-04T16:03:57.150Z,70.20
2023-05-04T16:06:24.583Z,70.10
2023-05-04T16:08:52.080Z,69.80
2023-05-04T16:11:19.461Z,70.30
2023-05-04T16:13:46.786Z,70.20
2023-05-04T16:16:16.316Z,70.60
2023-05-04T16:18:43.769Z,71.00
2023-05-04T16:21:14.707Z,71.20
2023-05-04T16:23:42.029Z,71.40
2023-05-04T16:26:09.326Z,71.30
2023-05-04T16:28:36.982Z,71.30
2023-05-04T16:31:11.978Z,71.50
2023-05-04T16:33:41.204Z,71.90
2023-05-04T16:36:09.148Z,72.50
2023-05-04T16:38:36.515Z,71.90
2023-05-04T16:41:03.840Z,70.90
2023-05-04T16:43:32.121Z,71.20
2023-05-04T16:45:59.513Z,70.90
2023-05-04T16:48:27.043Z,71.20
2023-05-04T16:50:54.288Z,70.90
2023-05-04T16:53:21.954Z,70.70
2023-05-04T16:55:51.112Z,69.90
2023-05-04T16:58:18.596Z,69.80
2023-05-04T17:00:45.997Z,69.50
2023-05-04T17:03:13.348Z,70.20
2023-05-04T17:05:41.005Z,70.50
2023-05-04T17:08:09.149Z,70.60
2023-05-04T17:10:36.627Z,70.90
2023-05-04T17:13:03.989Z,70.90
2023-05-04T17:15:31.329Z,70.90
2023-05-04T17:17:58.796Z,71.40
2023-05-04T17:20:30.598Z,71.90
2023-05-04T17:22:58.959Z,72.50
2023-05-04T17:25:27.108Z,72.90
2023-05-04T17:27:54.966Z,73.20
2023-05-04T17:30:22.550Z,73.50
2023-05-04T17:32:50.009Z,73.90
2023-05-04T17:35:25.249Z,74.10
2023-05-04T17:37:58.909Z,74.70
2023-05-04T17:40:28.136Z,75.20
2023-05-04T17:42:56.380Z,75.60
2023-05-04T17:45:24.127Z,76.10
2023-05-04T17:47:52.030Z,76.30
2023-05-04T17:50:20.029Z,76.60
2023-05-04T17:52:52.591Z,76.90
2023-05-04T17:55:20.118Z,77.20
2023-05-04T17:57:47.468Z,77.80
2023-05-04T18:00:15.301Z,78.40
2023-05-04T18:02:42.767Z,79.20
2023-05-04T18:05:10.587Z,79.90
2023-05-04T18:07:38.707Z,80.60
2023-05-04T18:10:06.858Z,81.40
2023-05-04T18:12:35.588Z,82.00
2023-05-04T18:15:08.365Z,82.40
2023-05-04T18:17:38.083Z,83.40
2023-05-04T18:20:08.404Z,84.50
2023-05-04T18:22:36.854Z,85.50
2023-05-04T18:25:04.415Z,86.70
2023-05-04T18:27:35.594Z,88.00
2023-05-04T18:30:06.890Z,89.70
2023-05-04T18:32:35.217Z,92.00
2023-05-04T18:35:03.546Z,93.30
2023-05-04T18:37:32.237Z,95.20
2023-05-04T18:40:02.526Z,97.60
2023-05-04T18:42:29.854Z,99.00
2023-05-04T18:44:57.288Z,99.90
2023-05-04T18:47:25.065Z,99.90
2023-05-04T18:49:54.736Z,99.90
2023-05-04T18:52:22.496Z,99.90
2023-05-04T18:54:49.858Z,99.90
2023-05-04T18:57:17.376Z,99.90
2023-05-04T18:59:44.811Z,99.90
2023-05-04T19:02:12.748Z,99.90
2023-05-04T19:04:40.199Z,99.90
2023-05-04T19:07:10.002Z,99.90
2023-05-04T19:09:37.950Z,99.90
2023-05-04T19:12:05.526Z,99.90
2023-05-04T19:14:33.465Z,99.90
2023-05-04T19:17:01.358Z,99.90
2023-05-04T19:19:28.690Z,99.90
2023-05-04T19:21:56.211Z,99.90
2023-05-04T19:24:23.598Z,99.90
2023-05-04T19:26:50.907Z,99.90
2023-05-04T19:29:18.254Z,99.90
2023-05-04T19:31:45.804Z,99.90
2023-05-04T19:34:14.544Z,99.90
2023-05-04T19:36:42.934Z,99.90
2023-05-04T19:39:10.293Z,99.90
2023-05-04T19:41:37.837Z,99.90
2023-05-04T19:44:10.361Z,99.90
2023-05-04T19:46:38.718Z,99.90
2023-05-04T19:49:07.430Z,99.90
2023-05-04T19:51:34.727Z,99.90
2023-05-04T19:54:02.052Z,99.90
2023-05-04T19:56:29.352Z,99.90
2023-05-04T19:58:56.949Z,99.90
2023-05-04T20:01:24.857Z,99.90
2023-05-04T20:03:52.326Z,99.90
2023-05-04T20:06:22.757Z,99.90
2023-05-04T20:08:50.285Z,99.90
2023-05-04T20:11:23.522Z,99.90
2023-05-04T20:13:55.601Z,99.90
2023-05-04T20:16:23.947Z,99.90
2023-05-04T20:18:51.369Z,99.90
2023-05-04T20:21:18.896Z,99.90
2023-05-04T20:23:46.862Z,99.90
2023-05-04T20:26:17.392Z,99.90
2023-05-04T20:28:44.789Z,99.90
2023-05-04T20:31:12.466Z,99.90
2023-05-04T20:33:39.998Z,99.90
2023-05-04T20:36:07.431Z,99.90
2023-05-04T20:38:34.726Z,99.90
2023-05-04T20:41:11.641Z,99.90
2023-05-04T20:43:43.065Z,99.90
2023-05-04T20:46:10.827Z,99.90
2023-05-04T20:48:40.596Z,99.90
2023-05-04T20:51:14.820Z,99.90
2023-05-04T20:53:42.930Z,99.90
2023-05-04T20:56:11.110Z,99.90
2023-05-04T20:58:38.404Z,99.90
2023-05-04T21:01:06.380Z,99.90
2023-05-04T21:03:34.362Z,99.90
2023-05-04T21:06:02.232Z,99.90
2023-05-04T21:08:29.882Z,99.90
2023-05-04T21:10:57.344Z,99.90
2023-05-04T21:13:30.172Z,99.90
2023-05-04T21:16:01.342Z,99.90
2023-05-04T21:18:28.880Z,99.90
2023-05-04T21:20:59.148Z,99.90
2023-05-04T21:23:31.257Z,99.90
2023-05-04T21:26:04.895Z,99.90
2023-05-04T21:28:32.648Z,99.90
2023-05-04T21:31:00.506Z,99.90
2023-05-04T21:33:28.014Z,99.90
2023-05-04T21:35:55.340Z,99.90
2023-05-04T21:38:22.737Z,99.90
2023-05-04T21:40:50.078Z,99.90
2023-05-04T21:43:17.666Z,99.90
2023-05-04T21:45:44.946Z,99.90
2023-05-04T21:48:12.341Z,99.90
2023-05-04T21:50:40.138Z,99.90
2023-05-04T21:53:07.467Z,99.90
2023-05-04T21:55:44.611Z,99.90
2023-05-04T21:58:13.193Z,99.90
2023-05-04T22:00:46.264Z,99.90
2023-05-04T22:03:13.747Z,99.90
2023-05-04T22:05:41.381Z,99.90
2023-05-04T22:08:08.885Z,99.90
2023-05-04T22:10:36.916Z,99.90
2023-05-04T22:13:04.465Z,99.90
2023-05-04T22:15:42.036Z,99.90
2023-05-04T22:18:14.284Z,99.90
2023-05-04T22:20:42.630Z,99.90
2023-05-04T22:23:10.860Z,99.90
2023-05-04T22:25:38.709Z,99.90
2023-05-04T22:28:06.708Z,99.90
2023-05-04T22:30:34.091Z,99.90
2023-05-04T22:33:01.611Z,99.90
2023-05-04T22:35:31.509Z,99.90
2023-05-04T22:37:59.076Z,99.90
2023-05-04T22:40:26.685Z,99.90
2023-05-04T22:42:57.088Z,99.90
2023-05-04T22:45:24.586Z,99.90
2023-05-04T22:47:52.249Z,99.90
2023-05-04T22:50:19.974Z,99.90
2023-05-04T22:52:47.773Z,99.90
2023-05-04T22:55:15.447Z,99.90
2023-05-04T22:57:42.898Z,99.90
2023-05-04T23:00:11.528Z,99.90
2023-05-04T23:02:39.145Z,99.90
2023-05-04T23:05:07.344Z,99.90
2023-05-04T23:07:34.783Z,99.90
2023-05-04T23:10:02.200Z,99.90
2023-05-04T23:12:29.798Z,99.90
2023-05-04T23:14:57.470Z,99.90
2023-05-04T23:17:27.119Z,99.40
2023-05-04T23:20:09.598Z,99.00
2023-05-04T23:22:36.856Z,98.70
2023-05-04T23:25:04.555Z,98.70
2023-05-04T23:27:31.875Z,98.70
2023-05-04T23:29:59.202Z,98.90
2023-05-04T23:32:26.625Z,98.90
2023-05-04T23:34:54.154Z,99.20
2023-05-04T23:37:21.533Z,99.50
2023-05-04T23:39:48.911Z,99.90
2023-05-04T23:42:16.171Z,99.90
2023-05-04T23:44:43.580Z,99.90
2023-05-04T23:47:10.892Z,99.90
2023-05-04T23:49:38.245Z,99.90
2023-05-04T23:52:05.701Z,99.90
2023-05-04T23:54:33.145Z,99.90
2023-05-04T23:57:00.444Z,99.90
2023-05-04T23:59:27.701Z,99.90
